首页
METAR-TAF:

METAR-TAF

机场 :

兰多夫空军基地

Universal City, 得克萨斯州, 美国

纬度: 29-32N, 经度: 098-17W, 海拔: 232米

当前天气观测

该预报发布于7小时和14分钟前的14:40 UTC
风速3节,风向东转东北
温度 24°C
湿度 89%
气压 1013 hPa
能見度: 4.8公里
阴天层高于700英尺
轻雾

METAR: KRND 171440Z 07003KT 3SM BR OVC007 24/22 A2992 RMK AO2A CIG 006 RWY33R SLP125

时间: 16:54 (21:54 UTC)

预报

该预报发布于11小时和51分钟前的10:03 UTC
预报有效从17日的 10点(UTC)到 18日的 16点(UTC)
风速6节,风向多变
能見度: 1600
散云层高于100英尺
多云层高于300英尺
阴天层高于700英尺
小毛毛雨, 轻雾
短暂存在
从 17日的 12点(UTC)到 17日的 15点(UTC)
能見度: 3200
散云层高于200英尺
散云层高于500英尺
阴天层高于700英尺
小毛毛雨, 轻雾
成为
从 17日的 16点(UTC)到 17日的 17点(UTC)
风速7节,风向东南
能見度: 4800
散云层高于1400英尺
阴天层高于1800英尺
小毛毛雨, 轻雾
短暂存在
从 17日的 16点(UTC)到 17日的 18点(UTC)
多云层高于1300英尺
阴天层高于2000英尺
成为
从 17日的 20点(UTC)到 17日的 21点(UTC)
风速9节,风向东南
能见度10公里或以上
多云层高于4000英尺
多云层高于20000英尺
成为
从 18日的 02点(UTC)到 18日的 03点(UTC)
风速12节,风向东南,有时为18节阵风
能見度: 8000
多云层高于1000英尺
阴天层高于1700英尺
轻雾
成为
从 18日的 08点(UTC)到 18日的 09点(UTC)
风速6节,风向多变
能見度: 4800
阴天层高于500英尺
小毛毛雨, 轻雾,

TAF: KRND 171003Z 1710/1816 VRB06KT 1600 -DZ BR SCT001 BKN003 OVC007 QNH2985INS TEMPO 1712/1715 3200 -DZ BR SCT002 SCT005 OVC007 BECMG 1716/1717 14007KT 4800 -DZ BR SCT014 OVC018 QNH2990INS TEMPO 1716/1718 BKN013 OVC020 BECMG 1720/1721 13009KT 9999 NSW BKN040 BKN200 QNH2985INS BECMG 1802/1803 14012G18KT 8000 BR BKN010 OVC017 QNH2989INS BECMG 1808/1809 VRB06KT 4800 -DZ BR OVC005 QNH2992INS TX28/1721Z TN21/1712Z

超过4000个机场的气象观测和天气预报(METAR&TAF报告)。

可查询的气象台以黄色和红色小点在地图上表示。

将鼠标移到小点上方,可查看气象台名称。

然后点击查看天气观测和预报。

如需切换地图:点击带黑十字的绿色按钮放大地图;点击带横线的绿色按钮缩小地图;或者点击绿色箭头查看邻近地区的地图。


METAR-TAF: